sensor_id;sensor_type;location;lat;lon;timestamp;temperature;humidity
1976;DHT22;988;48.016;7.800;2023-07-20T00:00:24;23.20;88.00
1976;DHT22;988;48.016;7.800;2023-07-20T00:02:50;23.20;87.70
1976;DHT22;988;48.016;7.800;2023-07-20T00:05:16;23.20;89.10
1976;DHT22;988;48.016;7.800;2023-07-20T00:07:43;23.10;87.50
1976;DHT22;988;48.016;7.800;2023-07-20T00:10:09;23.10;87.40
1976;DHT22;988;48.016;7.800;2023-07-20T00:12:35;23.10;88.20
1976;DHT22;988;48.016;7.800;2023-07-20T00:15:00;23.20;88.10
1976;DHT22;988;48.016;7.800;2023-07-20T00:17:26;23.30;90.10
1976;DHT22;988;48.016;7.800;2023-07-20T00:19:51;23.20;91.70
1976;DHT22;988;48.016;7.800;2023-07-20T00:22:17;23.00;98.70
1976;DHT22;988;48.016;7.800;2023-07-20T00:24:42;22.60;99.90
1976;DHT22;988;48.016;7.800;2023-07-20T00:27:08;22.70;99.90
1976;DHT22;988;48.016;7.800;2023-07-20T00:29:34;22.60;99.90
1976;DHT22;988;48.016;7.800;2023-07-20T00:32:00;22.50;99.90
1976;DHT22;988;48.016;7.800;2023-07-20T00:34:26;22.30;99.90
1976;DHT22;988;48.016;7.800;2023-07-20T00:36:51;22.40;99.90
1976;DHT22;988;48.016;7.800;2023-07-20T00:39:17;22.50;99.90
1976;DHT22;988;48.016;7.800;2023-07-20T00:41:42;22.40;99.90
1976;DHT22;988;48.016;7.800;2023-07-20T00:44:08;22.40;99.90
1976;DHT22;988;48.016;7.800;2023-07-20T00:46:33;22.50;99.90
1976;DHT22;988;48.016;7.800;2023-07-20T00:48:59;22.40;99.90
1976;DHT22;988;48.016;7.800;2023-07-20T00:51:24;22.50;99.90
1976;DHT22;988;48.016;7.800;2023-07-20T00:53:50;22.50;99.90
1976;DHT22;988;48.016;7.800;2023-07-20T00:56:16;22.60;99.90
1976;DHT22;988;48.016;7.800;2023-07-20T00:58:41;22.60;99.90
1976;DHT22;988;48.016;7.800;2023-07-20T01:01:07;22.60;99.90
1976;DHT22;988;48.016;7.800;2023-07-20T01:03:32;22.70;99.90
1976;DHT22;988;48.016;7.800;2023-07-20T01:08:52;22.40;99.90
1976;DHT22;988;48.016;7.800;2023-07-20T01:14:05;22.50;99.90
1976;DHT22;988;48.016;7.800;2023-07-20T01:16:32;22.50;99.90
1976;DHT22;988;48.016;7.800;2023-07-20T01:18:57;22.60;99.90
1976;DHT22;988;48.016;7.800;2023-07-20T01:24:22;22.30;99.90
1976;DHT22;988;48.016;7.800;2023-07-20T01:29:36;22.40;99.90
1976;DHT22;988;48.016;7.800;2023-07-20T01:32:08;22.20;99.90
1976;DHT22;988;48.016;7.800;2023-07-20T01:34:34;22.20;99.90
1976;DHT22;988;48.016;7.800;2023-07-20T01:37:00;22.10;99.90
1976;DHT22;988;48.016;7.800;2023-07-20T01:39:26;22.20;99.90
1976;DHT22;988;48.016;7.800;2023-07-20T01:41:52;22.00;99.90
1976;DHT22;988;48.016;7.800;2023-07-20T01:44:18;22.00;99.90
1976;DHT22;988;48.016;7.800;2023-07-20T01:46:43;22.00;99.90
1976;DHT22;988;48.016;7.800;2023-07-20T01:49:09;21.90;99.90
1976;DHT22;988;48.016;7.800;2023-07-20T01:51:34;21.80;99.90
1976;DHT22;988;48.016;7.800;2023-07-20T01:54:00;22.10;99.90
1976;DHT22;988;48.016;7.800;2023-07-20T01:56:26;22.10;99.90
1976;DHT22;988;48.016;7.800;2023-07-20T01:58:51;22.10;99.90
1976;DHT22;988;48.016;7.800;2023-07-20T02:01:17;21.90;99.90
1976;DHT22;988;48.016;7.800;2023-07-20T02:03:42;21.80;99.90
1976;DHT22;988;48.016;7.800;2023-07-20T02:06:08;21.90;99.90
1976;DHT22;988;48.016;7.800;2023-07-20T02:08:33;22.00;99.90
1976;DHT22;988;48.016;7.800;2023-07-20T02:10:59;22.10;99.90
1976;DHT22;988;48.016;7.800;2023-07-20T02:13:24;22.10;99.90
1976;DHT22;988;48.016;7.800;2023-07-20T02:15:50;22.20;99.90
1976;DHT22;988;48.016;7.800;2023-07-20T02:18:16;21.80;99.90
1976;DHT22;988;48.016;7.800;2023-07-20T02:20:41;21.70;99.90
1976;DHT22;988;48.016;7.800;2023-07-20T02:23:07;21.30;99.90
1976;DHT22;988;48.016;7.800;2023-07-20T02:25:33;21.30;99.90
1976;DHT22;988;48.016;7.800;2023-07-20T02:27:58;21.50;99.90
1976;DHT22;988;48.016;7.800;2023-07-20T02:30:24;21.70;99.90
1976;DHT22;988;48.016;7.800;2023-07-20T02:32:49;21.70;99.90
1976;DHT22;988;48.016;7.800;2023-07-20T02:35:15;21.50;99.90
1976;DHT22;988;48.016;7.800;2023-07-20T02:37:41;21.40;99.90
1976;DHT22;988;48.016;7.800;2023-07-20T02:40:06;21.10;99.90
1976;DHT22;988;48.016;7.800;2023-07-20T02:42:32;20.80;99.90
1976;DHT22;988;48.016;7.800;2023-07-20T02:44:58;20.80;99.90
1976;DHT22;988;48.016;7.800;2023-07-20T02:47:23;21.00;99.90
1976;DHT22;988;48.016;7.800;2023-07-20T02:49:49;21.10;99.90
1976;DHT22;988;48.016;7.800;2023-07-20T02:52:14;21.00;99.90
1976;DHT22;988;48.016;7.800;2023-07-20T02:54:40;21.00;99.90
1976;DHT22;988;48.016;7.800;2023-07-20T02:57:05;21.00;99.90
1976;DHT22;988;48.016;7.800;2023-07-20T02:59:31;20.90;99.90
1976;DHT22;988;48.016;7.800;2023-07-20T03:01:56;20.70;99.90
1976;DHT22;988;48.016;7.800;2023-07-20T03:04:23;20.80;99.90
1976;DHT22;988;48.016;7.800;2023-07-20T03:06:49;20.80;99.90
1976;DHT22;988;48.016;7.800;2023-07-20T03:09:14;20.80;99.90
1976;DHT22;988;48.016;7.800;2023-07-20T03:11:40;20.70;99.90
1976;DHT22;988;48.016;7.800;2023-07-20T03:14:06;20.60;99.90
1976;DHT22;988;48.016;7.800;2023-07-20T03:16:32;20.70;99.90
1976;DHT22;988;48.016;7.800;2023-07-20T03:19:00;20.80;99.90
1976;DHT22;988;48.016;7.800;2023-07-20T03:21:26;20.80;99.90
1976;DHT22;988;48.016;7.800;2023-07-20T03:23:51;20.40;99.90
1976;DHT22;988;48.016;7.800;2023-07-20T03:26:16;20.10;99.90
1976;DHT22;988;48.016;7.800;2023-07-20T03:28:42;19.80;99.90
1976;DHT22;988;48.016;7.800;2023-07-20T03:31:07;19.70;99.90
1976;DHT22;988;48.016;7.800;2023-07-20T03:33:34;19.70;99.90
1976;DHT22;988;48.016;7.800;2023-07-20T03:36:00;19.90;99.90
1976;DHT22;988;48.016;7.800;2023-07-20T03:38:26;20.10;99.90
1976;DHT22;988;48.016;7.800;2023-07-20T03:40:53;20.20;99.90
1976;DHT22;988;48.016;7.800;2023-07-20T03:43:18;20.30;99.90
1976;DHT22;988;48.016;7.800;2023-07-20T03:45:44;20.10;99.90
1976;DHT22;988;48.016;7.800;2023-07-20T03:48:11;20.10;99.90
1976;DHT22;988;48.016;7.800;2023-07-20T03:50:36;19.90;99.90
1976;DHT22;988;48.016;7.800;2023-07-20T03:53:02;19.40;99.90
1976;DHT22;988;48.016;7.800;2023-07-20T03:55:27;19.40;99.90
1976;DHT22;988;48.016;7.800;2023-07-20T03:57:53;19.80;99.90
1976;DHT22;988;48.016;7.800;2023-07-20T04:00:18;20.10;99.90
1976;DHT22;988;48.016;7.800;2023-07-20T04:02:44;19.90;99.90
1976;DHT22;988;48.016;7.800;2023-07-20T04:05:09;19.60;99.90
1976;DHT22;988;48.016;7.800;2023-07-20T04:07:35;19.70;99.90
1976;DHT22;988;48.016;7.800;2023-07-20T04:10:00;20.00;99.90
1976;DHT22;988;48.016;7.800;2023-07-20T04:12:26;20.00;99.90
1976;DHT22;988;48.016;7.800;2023-07-20T04:14:51;19.90;99.90
1976;DHT22;988;48.016;7.800;2023-07-20T04:17:17;19.60;99.90
1976;DHT22;988;48.016;7.800;2023-07-20T04:19:43;19.40;99.90
1976;DHT22;988;48.016;7.800;2023-07-20T04:22:09;19.50;99.90
1976;DHT22;988;48.016;7.800;2023-07-20T04:24:35;19.50;99.90
1976;DHT22;988;48.016;7.800;2023-07-20T04:27:00;19.80;99.90
1976;DHT22;988;48.016;7.800;2023-07-20T04:29:26;19.90;99.90
1976;DHT22;988;48.016;7.800;2023-07-20T04:31:51;19.60;99.90
1976;DHT22;988;48.016;7.800;2023-07-20T04:34:16;19.60;99.90
1976;DHT22;988;48.016;7.800;2023-07-20T04:36:42;19.50;99.90
1976;DHT22;988;48.016;7.800;2023-07-20T04:39:10;19.70;99.90
1976;DHT22;988;48.016;7.800;2023-07-20T04:41:37;19.60;99.90
1976;DHT22;988;48.016;7.800;2023-07-20T04:44:02;19.60;99.90
1976;DHT22;988;48.016;7.800;2023-07-20T04:46:28;19.60;99.90
1976;DHT22;988;48.016;7.800;2023-07-20T04:48:53;19.50;99.90
1976;DHT22;988;48.016;7.800;2023-07-20T04:51:19;19.20;99.90
1976;DHT22;988;48.016;7.800;2023-07-20T04:53:46;19.40;99.90
1976;DHT22;988;48.016;7.800;2023-07-20T04:56:12;19.30;99.90
1976;DHT22;988;48.016;7.800;2023-07-20T04:58:37;19.10;99.90
1976;DHT22;988;48.016;7.800;2023-07-20T05:01:03;19.20;99.90
1976;DHT22;988;48.016;7.800;2023-07-20T05:03:28;19.50;99.90
1976;DHT22;988;48.016;7.800;2023-07-20T05:05:54;19.80;99.90
1976;DHT22;988;48.016;7.800;2023-07-20T05:08:20;19.90;99.90
1976;DHT22;988;48.016;7.800;2023-07-20T05:10:47;19.90;99.90
1976;DHT22;988;48.016;7.800;2023-07-20T05:13:13;19.90;99.90
1976;DHT22;988;48.016;7.800;2023-07-20T05:15:38;20.20;99.90
1976;DHT22;988;48.016;7.800;2023-07-20T05:18:04;20.00;99.90
1976;DHT22;988;48.016;7.800;2023-07-20T05:20:29;19.70;99.90
1976;DHT22;988;48.016;7.800;2023-07-20T05:22:57;20.00;99.90
1976;DHT22;988;48.016;7.800;2023-07-20T05:25:22;20.30;99.90
1976;DHT22;988;48.016;7.800;2023-07-20T05:27:48;20.40;99.90
1976;DHT22;988;48.016;7.800;2023-07-20T05:30:13;20.60;99.90
1976;DHT22;988;48.016;7.800;2023-07-20T05:32:39;20.70;99.90
1976;DHT22;988;48.016;7.800;2023-07-20T05:35:05;20.70;99.90
1976;DHT22;988;48.016;7.800;2023-07-20T05:37:30;20.70;99.90
1976;DHT22;988;48.016;7.800;2023-07-20T05:39:56;20.90;99.90
1976;DHT22;988;48.016;7.800;2023-07-20T05:42:21;20.90;99.90
1976;DHT22;988;48.016;7.800;2023-07-20T05:44:47;21.10;99.90
1976;DHT22;988;48.016;7.800;2023-07-20T05:47:18;21.40;99.90
1976;DHT22;988;48.016;7.800;2023-07-20T05:49:43;21.20;99.90
1976;DHT22;988;48.016;7.800;2023-07-20T05:52:09;21.40;99.90
1976;DHT22;988;48.016;7.800;2023-07-20T05:54:34;21.80;99.90
1976;DHT22;988;48.016;7.800;2023-07-20T05:57:00;21.80;99.90
1976;DHT22;988;48.016;7.800;2023-07-20T05:59:26;21.80;99.90
1976;DHT22;988;48.016;7.800;2023-07-20T06:01:54;21.80;99.90
1976;DHT22;988;48.016;7.800;2023-07-20T06:04:20;21.90;99.90
1976;DHT22;988;48.016;7.800;2023-07-20T06:06:45;22.00;99.90
1976;DHT22;988;48.016;7.800;2023-07-20T06:09:11;22.00;99.90
1976;DHT22;988;48.016;7.800;2023-07-20T06:11:40;22.00;99.90
1976;DHT22;988;48.016;7.800;2023-07-20T06:14:06;22.50;99.90
1976;DHT22;988;48.016;7.800;2023-07-20T06:16:31;22.40;99.90
1976;DHT22;988;48.016;7.800;2023-07-20T06:18:57;22.40;99.90
1976;DHT22;988;48.016;7.800;2023-07-20T06:21:22;22.30;99.90
1976;DHT22;988;48.016;7.800;2023-07-20T06:23:48;22.90;99.90
1976;DHT22;988;48.016;7.800;2023-07-20T06:26:13;22.80;99.90
1976;DHT22;988;48.016;7.800;2023-07-20T06:28:39;22.60;99.90
1976;DHT22;988;48.016;7.800;2023-07-20T06:31:04;22.60;99.90
1976;DHT22;988;48.016;7.800;2023-07-20T06:33:30;22.80;99.90
1976;DHT22;988;48.016;7.800;2023-07-20T06:35:55;23.30;99.90
1976;DHT22;988;48.016;7.800;2023-07-20T06:38:22;23.50;99.90
1976;DHT22;988;48.016;7.800;2023-07-20T06:40:48;23.10;99.90
1976;DHT22;988;48.016;7.800;2023-07-20T06:43:14;23.00;99.90
1976;DHT22;988;48.016;7.800;2023-07-20T06:45:40;23.20;99.90
1976;DHT22;988;48.016;7.800;2023-07-20T06:48:05;23.10;99.90
1976;DHT22;988;48.016;7.800;2023-07-20T06:50:31;23.50;99.90
1976;DHT22;988;48.016;7.800;2023-07-20T06:52:57;23.90;99.90
1976;DHT22;988;48.016;7.800;2023-07-20T06:55:24;24.10;99.90
1976;DHT22;988;48.016;7.800;2023-07-20T06:57:49;24.30;99.90
1976;DHT22;988;48.016;7.800;2023-07-20T07:00:15;24.60;99.90
1976;DHT22;988;48.016;7.800;2023-07-20T07:02:40;24.30;99.90
1976;DHT22;988;48.016;7.800;2023-07-20T07:05:06;24.20;99.90
1976;DHT22;988;48.016;7.800;2023-07-20T07:07:31;24.70;99.90
1976;DHT22;988;48.016;7.800;2023-07-20T07:09:57;25.00;99.90
1976;DHT22;988;48.016;7.800;2023-07-20T07:12:22;25.30;99.90
1976;DHT22;988;48.016;7.800;2023-07-20T07:14:48;25.00;99.90
1976;DHT22;988;48.016;7.800;2023-07-20T07:17:13;24.60;99.90
1976;DHT22;988;48.016;7.800;2023-07-20T07:19:39;24.50;99.90
1976;DHT22;988;48.016;7.800;2023-07-20T07:22:06;24.80;99.90
1976;DHT22;988;48.016;7.800;2023-07-20T07:24:31;24.50;99.90
1976;DHT22;988;48.016;7.800;2023-07-20T07:26:59;24.60;99.90
1976;DHT22;988;48.016;7.800;2023-07-20T07:29:25;24.60;99.90
1976;DHT22;988;48.016;7.800;2023-07-20T07:31:51;25.10;99.90
1976;DHT22;988;48.016;7.800;2023-07-20T07:34:16;25.00;99.90
1976;DHT22;988;48.016;7.800;2023-07-20T07:36:42;25.30;99.90
1976;DHT22;988;48.016;7.800;2023-07-20T07:39:08;25.60;99.90
1976;DHT22;988;48.016;7.800;2023-07-20T07:41:34;26.00;99.90
1976;DHT22;988;48.016;7.800;2023-07-20T07:44:00;26.50;99.90
1976;DHT22;988;48.016;7.800;2023-07-20T07:46:25;27.40;98.70
1976;DHT22;988;48.016;7.800;2023-07-20T07:48:51;27.90;95.10
1976;DHT22;988;48.016;7.800;2023-07-20T07:51:16;28.90;90.80
1976;DHT22;988;48.016;7.800;2023-07-20T07:53:42;28.80;89.90
1976;DHT22;988;48.016;7.800;2023-07-20T07:56:08;28.70;90.80
1976;DHT22;988;48.016;7.800;2023-07-20T07:58:34;28.70;88.50
1976;DHT22;988;48.016;7.800;2023-07-20T08:01:00;28.40;86.30
1976;DHT22;988;48.016;7.800;2023-07-20T08:03:25;28.30;86.30
1976;DHT22;988;48.016;7.800;2023-07-20T08:05:53;28.60;84.40
1976;DHT22;988;48.016;7.800;2023-07-20T08:08:20;29.40;80.80
1976;DHT22;988;48.016;7.800;2023-07-20T08:10:46;30.30;76.60
1976;DHT22;988;48.016;7.800;2023-07-20T08:13:11;30.30;78.10
1976;DHT22;988;48.016;7.800;2023-07-20T08:15:37;30.80;74.50
1976;DHT22;988;48.016;7.800;2023-07-20T08:18:03;32.40;68.30
1976;DHT22;988;48.016;7.800;2023-07-20T08:20:28;33.50;63.60
1976;DHT22;988;48.016;7.800;2023-07-20T08:22:54;32.70;64.30
1976;DHT22;988;48.016;7.800;2023-07-20T08:25:20;33.20;60.30
1976;DHT22;988;48.016;7.800;2023-07-20T08:27:45;33.00;60.10
1976;DHT22;988;48.016;7.800;2023-07-20T08:30:12;32.10;58.40
1976;DHT22;988;48.016;7.800;2023-07-20T08:32:38;31.90;60.40
1976;DHT22;988;48.016;7.800;2023-07-20T08:35:05;31.80;65.30
1976;DHT22;988;48.016;7.800;2023-07-20T08:37:31;34.50;59.60
1976;DHT22;988;48.016;7.800;2023-07-20T08:39:56;35.60;53.90
1976;DHT22;988;48.016;7.800;2023-07-20T08:42:22;34.80;56.20
1976;DHT22;988;48.016;7.800;2023-07-20T08:44:48;35.50;52.90
1976;DHT22;988;48.016;7.800;2023-07-20T08:47:13;36.90;51.60
1976;DHT22;988;48.016;7.800;2023-07-20T08:49:41;36.20;44.90
1976;DHT22;988;48.016;7.800;2023-07-20T08:52:06;36.10;49.20
1976;DHT22;988;48.016;7.800;2023-07-20T08:54:32;37.90;45.50
1976;DHT22;988;48.016;7.800;2023-07-20T08:57:03;38.90;43.90
1976;DHT22;988;48.016;7.800;2023-07-20T08:59:29;38.00;42.30
1976;DHT22;988;48.016;7.800;2023-07-20T09:01:58;38.10;42.30
1976;DHT22;988;48.016;7.800;2023-07-20T09:04:24;38.80;41.90
1976;DHT22;988;48.016;7.800;2023-07-20T09:06:49;38.80;40.10
1976;DHT22;988;48.016;7.800;2023-07-20T09:09:15;39.10;40.80
1976;DHT22;988;48.016;7.800;2023-07-20T09:11:41;40.50;40.00
1976;DHT22;988;48.016;7.800;2023-07-20T09:14:07;40.00;39.00
1976;DHT22;988;48.016;7.800;2023-07-20T09:16:46;37.40;41.90
1976;DHT22;988;48.016;7.800;2023-07-20T09:19:14;36.60;42.80
1976;DHT22;988;48.016;7.800;2023-07-20T09:21:39;36.30;44.30
1976;DHT22;988;48.016;7.800;2023-07-20T09:24:05;37.40;44.40
1976;DHT22;988;48.016;7.800;2023-07-20T09:26:31;37.50;43.70
1976;DHT22;988;48.016;7.800;2023-07-20T09:29:06;37.70;42.00
1976;DHT22;988;48.016;7.800;2023-07-20T09:31:32;39.00;42.20
1976;DHT22;988;48.016;7.800;2023-07-20T09:33:58;38.10;42.30
1976;DHT22;988;48.016;7.800;2023-07-20T09:36:23;39.30;41.60
1976;DHT22;988;48.016;7.800;2023-07-20T09:38:49;38.80;40.80
1976;DHT22;988;48.016;7.800;2023-07-20T09:41:14;38.30;40.20
1976;DHT22;988;48.016;7.800;2023-07-20T09:43:43;38.20;40.10
1976;DHT22;988;48.016;7.800;2023-07-20T09:46:10;38.10;41.10
1976;DHT22;988;48.016;7.800;2023-07-20T09:48:36;38.90;40.50
1976;DHT22;988;48.016;7.800;2023-07-20T09:51:01;38.80;40.10
1976;DHT22;988;48.016;7.800;2023-07-20T09:53:27;39.50;40.20
1976;DHT22;988;48.016;7.800;2023-07-20T09:55:53;39.40;39.90
1976;DHT22;988;48.016;7.800;2023-07-20T09:58:22;38.20;42.10
1976;DHT22;988;48.016;7.800;2023-07-20T10:00:48;38.30;40.90
1976;DHT22;988;48.016;7.800;2023-07-20T10:03:19;37.00;40.90
1976;DHT22;988;48.016;7.800;2023-07-20T10:06:01;38.90;39.60
1976;DHT22;988;48.016;7.800;2023-07-20T10:08:28;39.10;38.90
1976;DHT22;988;48.016;7.800;2023-07-20T10:10:54;39.50;39.70
1976;DHT22;988;48.016;7.800;2023-07-20T10:13:27;39.80;38.40
1976;DHT22;988;48.016;7.800;2023-07-20T10:15:54;39.00;39.60
1976;DHT22;988;48.016;7.800;2023-07-20T10:18:22;38.30;39.90
1976;DHT22;988;48.016;7.800;2023-07-20T10:20:51;38.30;39.90
1976;DHT22;988;48.016;7.800;2023-07-20T10:23:17;38.00;39.80
1976;DHT22;988;48.016;7.800;2023-07-20T10:25:42;39.20;37.30
1976;DHT22;988;48.016;7.800;2023-07-20T10:28:10;38.70;38.50
1976;DHT22;988;48.016;7.800;2023-07-20T10:30:36;39.20;37.10
1976;DHT22;988;48.016;7.800;2023-07-20T10:33:02;38.60;35.90
1976;DHT22;988;48.016;7.800;2023-07-20T10:35:28;40.20;36.80
1976;DHT22;988;48.016;7.800;2023-07-20T10:37:54;39.70;36.20
1976;DHT22;988;48.016;7.800;2023-07-20T10:42:55;40.70;36.10
1976;DHT22;988;48.016;7.800;2023-07-20T10:45:21;41.80;32.90
1976;DHT22;988;48.016;7.800;2023-07-20T10:47:57;40.90;37.00
1976;DHT22;988;48.016;7.800;2023-07-20T10:50:23;41.60;34.90
1976;DHT22;988;48.016;7.800;2023-07-20T10:53:03;40.30;36.80
1976;DHT22;988;48.016;7.800;2023-07-20T10:55:30;39.60;36.80
1976;DHT22;988;48.016;7.800;2023-07-20T10:58:09;39.10;36.00
1976;DHT22;988;48.016;7.800;2023-07-20T11:01:01;36.80;39.20
1976;DHT22;988;48.016;7.800;2023-07-20T11:03:30;36.40;42.70
1976;DHT22;988;48.016;7.800;2023-07-20T11:05:56;35.50;40.60
1976;DHT22;988;48.016;7.800;2023-07-20T11:08:38;35.10;44.00
1976;DHT22;988;48.016;7.800;2023-07-20T11:13:59;38.00;40.20
1976;DHT22;988;48.016;7.800;2023-07-20T11:16:34;38.30;35.60
1976;DHT22;988;48.016;7.800;2023-07-20T11:19:00;39.10;37.90
1976;DHT22;988;48.016;7.800;2023-07-20T11:21:26;40.80;35.70
1976;DHT22;988;48.016;7.800;2023-07-20T11:23:55;40.70;35.40
1976;DHT22;988;48.016;7.800;2023-07-20T11:26:20;38.70;35.90
1976;DHT22;988;48.016;7.800;2023-07-20T11:28:50;38.40;36.10
1976;DHT22;988;48.016;7.800;2023-07-20T11:31:19;38.10;35.90
1976;DHT22;988;48.016;7.800;2023-07-20T11:33:45;38.40;38.80
1976;DHT22;988;48.016;7.800;2023-07-20T11:36:11;39.20;37.30
1976;DHT22;988;48.016;7.800;2023-07-20T11:38:38;39.50;37.60
1976;DHT22;988;48.016;7.800;2023-07-20T11:41:03;40.10;38.30
1976;DHT22;988;48.016;7.800;2023-07-20T11:43:32;41.00;35.70
1976;DHT22;988;48.016;7.800;2023-07-20T11:45:57;40.10;36.10
1976;DHT22;988;48.016;7.800;2023-07-20T11:48:23;40.90;34.70
1976;DHT22;988;48.016;7.800;2023-07-20T11:50:48;39.90;34.70
1976;DHT22;988;48.016;7.800;2023-07-20T11:53:14;38.00;36.80
1976;DHT22;988;48.016;7.800;2023-07-20T11:55:40;37.00;36.20
1976;DHT22;988;48.016;7.800;2023-07-20T11:58:06;34.90;39.90
1976;DHT22;988;48.016;7.800;2023-07-20T12:00:32;35.80;41.20
1976;DHT22;988;48.016;7.800;2023-07-20T12:02:58;37.80;38.90
1976;DHT22;988;48.016;7.800;2023-07-20T12:05:24;39.50;36.30
1976;DHT22;988;48.016;7.800;2023-07-20T12:07:50;38.60;35.00
1976;DHT22;988;48.016;7.800;2023-07-20T12:10:22;39.90;35.60
1976;DHT22;988;48.016;7.800;2023-07-20T12:12:48;40.20;36.30
1976;DHT22;988;48.016;7.800;2023-07-20T12:15:19;40.20;35.70
1976;DHT22;988;48.016;7.800;2023-07-20T12:17:45;41.00;36.90
1976;DHT22;988;48.016;7.800;2023-07-20T12:20:11;40.40;33.30
1976;DHT22;988;48.016;7.800;2023-07-20T12:22:39;38.00;33.40
1976;DHT22;988;48.016;7.800;2023-07-20T12:25:06;39.30;34.10
1976;DHT22;988;48.016;7.800;2023-07-20T12:27:32;41.00;34.80
1976;DHT22;988;48.016;7.800;2023-07-20T12:29:57;38.00;34.70
1976;DHT22;988;48.016;7.800;2023-07-20T12:32:23;38.00;38.10
1976;DHT22;988;48.016;7.800;2023-07-20T12:34:49;38.70;36.00
1976;DHT22;988;48.016;7.800;2023-07-20T12:37:17;37.80;34.20
1976;DHT22;988;48.016;7.800;2023-07-20T12:39:43;38.50;36.20
1976;DHT22;988;48.016;7.800;2023-07-20T12:42:12;39.50;36.80
1976;DHT22;988;48.016;7.800;2023-07-20T12:44:37;39.40;35.60
1976;DHT22;988;48.016;7.800;2023-07-20T12:47:03;40.00;34.80
1976;DHT22;988;48.016;7.800;2023-07-20T12:49:29;40.60;34.80
1976;DHT22;988;48.016;7.800;2023-07-20T12:51:54;40.30;33.60
1976;DHT22;988;48.016;7.800;2023-07-20T12:54:19;39.90;34.50
1976;DHT22;988;48.016;7.800;2023-07-20T12:56:45;40.00;36.10
1976;DHT22;988;48.016;7.800;2023-07-20T12:59:10;40.50;34.00
1976;DHT22;988;48.016;7.800;2023-07-20T13:01:36;39.90;35.50
1976;DHT22;988;48.016;7.800;2023-07-20T13:04:03;38.70;37.10
1976;DHT22;988;48.016;7.800;2023-07-20T13:06:29;38.30;35.20
1976;DHT22;988;48.016;7.800;2023-07-20T13:08:54;38.30;36.20
1976;DHT22;988;48.016;7.800;2023-07-20T13:11:21;37.80;36.50
1976;DHT22;988;48.016;7.800;2023-07-20T13:13:47;38.30;36.50
1976;DHT22;988;48.016;7.800;2023-07-20T13:16:13;39.00;34.90
1976;DHT22;988;48.016;7.800;2023-07-20T13:18:40;38.50;35.10
1976;DHT22;988;48.016;7.800;2023-07-20T13:21:05;39.20;35.90
1976;DHT22;988;48.016;7.800;2023-07-20T13:23:36;38.50;34.00
1976;DHT22;988;48.016;7.800;2023-07-20T13:26:02;36.80;37.90
1976;DHT22;988;48.016;7.800;2023-07-20T13:28:28;36.80;36.50
1976;DHT22;988;48.016;7.800;2023-07-20T13:30:53;37.10;37.50
1976;DHT22;988;48.016;7.800;2023-07-20T13:33:19;37.70;37.50
1976;DHT22;988;48.016;7.800;2023-07-20T13:35:44;37.80;36.60
1976;DHT22;988;48.016;7.800;2023-07-20T13:38:10;37.60;36.70
1976;DHT22;988;48.016;7.800;2023-07-20T13:40:35;37.40;36.60
1976;DHT22;988;48.016;7.800;2023-07-20T13:43:02;36.90;37.80
1976;DHT22;988;48.016;7.800;2023-07-20T13:45:27;37.10;36.70
1976;DHT22;988;48.016;7.800;2023-07-20T13:47:53;37.10;36.70
1976;DHT22;988;48.016;7.800;2023-07-20T13:50:18;36.90;39.50
1976;DHT22;988;48.016;7.800;2023-07-20T13:52:44;36.90;37.30
1976;DHT22;988;48.016;7.800;2023-07-20T13:55:09;36.70;38.40
1976;DHT22;988;48.016;7.800;2023-07-20T13:57:35;36.70;37.90
1976;DHT22;988;48.016;7.800;2023-07-20T14:00:00;36.70;38.00
1976;DHT22;988;48.016;7.800;2023-07-20T14:02:27;37.00;37.30
1976;DHT22;988;48.016;7.800;2023-07-20T14:04:52;35.00;37.90
1976;DHT22;988;48.016;7.800;2023-07-20T14:07:21;32.80;39.50
1976;DHT22;988;48.016;7.800;2023-07-20T14:09:46;33.10;39.90
1976;DHT22;988;48.016;7.800;2023-07-20T14:12:12;34.20;44.10
1976;DHT22;988;48.016;7.800;2023-07-20T14:14:42;34.90;41.10
1976;DHT22;988;48.016;7.800;2023-07-20T14:17:07;35.60;41.20
1976;DHT22;988;48.016;7.800;2023-07-20T14:19:33;36.10;41.10
1976;DHT22;988;48.016;7.800;2023-07-20T14:21:58;36.00;40.20
1976;DHT22;988;48.016;7.800;2023-07-20T14:24:25;35.10;40.30
1976;DHT22;988;48.016;7.800;2023-07-20T14:26:51;35.30;38.80
1976;DHT22;988;48.016;7.800;2023-07-20T14:29:17;35.30;39.60
1976;DHT22;988;48.016;7.800;2023-07-20T14:31:45;34.70;40.00
1976;DHT22;988;48.016;7.800;2023-07-20T14:34:18;34.90;39.70
1976;DHT22;988;48.016;7.800;2023-07-20T14:36:44;34.70;40.80
1976;DHT22;988;48.016;7.800;2023-07-20T14:39:10;34.70;40.50
1976;DHT22;988;48.016;7.800;2023-07-20T14:41:35;34.70;41.00
1976;DHT22;988;48.016;7.800;2023-07-20T14:44:01;34.00;41.90
1976;DHT22;988;48.016;7.800;2023-07-20T14:46:27;34.10;42.00
1976;DHT22;988;48.016;7.800;2023-07-20T14:48:52;33.50;40.90
1976;DHT22;988;48.016;7.800;2023-07-20T14:51:18;33.50;41.60
1976;DHT22;988;48.016;7.800;2023-07-20T14:53:43;33.50;42.10
1976;DHT22;988;48.016;7.800;2023-07-20T14:56:09;33.20;40.10
1976;DHT22;988;48.016;7.800;2023-07-20T14:58:35;33.90;42.50
1976;DHT22;988;48.016;7.800;2023-07-20T15:01:00;34.20;42.80
1976;DHT22;988;48.016;7.800;2023-07-20T15:03:26;34.30;42.20
1976;DHT22;988;48.016;7.800;2023-07-20T15:05:51;34.30;43.20
1976;DHT22;988;48.016;7.800;2023-07-20T15:08:20;33.70;41.70
1976;DHT22;988;48.016;7.800;2023-07-20T15:10:46;33.20;41.70
1976;DHT22;988;48.016;7.800;2023-07-20T15:13:12;32.70;42.60
1976;DHT22;988;48.016;7.800;2023-07-20T15:15:39;32.30;43.80
1976;DHT22;988;48.016;7.800;2023-07-20T15:18:05;31.80;46.70
1976;DHT22;988;48.016;7.800;2023-07-20T15:20:30;31.30;46.20
1976;DHT22;988;48.016;7.800;2023-07-20T15:22:57;31.50;46.20
1976;DHT22;988;48.016;7.800;2023-07-20T15:25:22;31.80;46.20
1976;DHT22;988;48.016;7.800;2023-07-20T15:27:48;32.20;46.20
1976;DHT22;988;48.016;7.800;2023-07-20T15:30:14;32.60;44.00
1976;DHT22;988;48.016;7.800;2023-07-20T15:32:40;32.10;44.10
1976;DHT22;988;48.016;7.800;2023-07-20T15:35:06;31.90;44.00
1976;DHT22;988;48.016;7.800;2023-07-20T15:37:32;32.40;44.80
1976;DHT22;988;48.016;7.800;2023-07-20T15:39:58;32.10;45.10
1976;DHT22;988;48.016;7.800;2023-07-20T15:42:23;31.80;45.50
1976;DHT22;988;48.016;7.800;2023-07-20T15:44:49;31.70;45.00
1976;DHT22;988;48.016;7.800;2023-07-20T15:47:14;31.40;45.90
1976;DHT22;988;48.016;7.800;2023-07-20T15:49:40;31.40;48.20
1976;DHT22;988;48.016;7.800;2023-07-20T15:52:06;31.10;46.90
1976;DHT22;988;48.016;7.800;2023-07-20T15:54:34;31.10;47.10
1976;DHT22;988;48.016;7.800;2023-07-20T15:56:59;30.70;43.80
1976;DHT22;988;48.016;7.800;2023-07-20T15:59:25;30.80;46.30
1976;DHT22;988;48.016;7.800;2023-07-20T16:01:50;31.30;46.30
1976;DHT22;988;48.016;7.800;2023-07-20T16:04:16;31.10;43.80
1976;DHT22;988;48.016;7.800;2023-07-20T16:06:43;30.80;46.00
1976;DHT22;988;48.016;7.800;2023-07-20T16:09:08;31.00;47.50
1976;DHT22;988;48.016;7.800;2023-07-20T16:11:34;31.00;47.00
1976;DHT22;988;48.016;7.800;2023-07-20T16:14:00;30.60;46.80
1976;DHT22;988;48.016;7.800;2023-07-20T16:16:26;30.60;47.60
1976;DHT22;988;48.016;7.800;2023-07-20T16:18:51;30.80;46.90
1976;DHT22;988;48.016;7.800;2023-07-20T16:21:19;30.70;49.30
1976;DHT22;988;48.016;7.800;2023-07-20T16:23:44;30.10;47.60
1976;DHT22;988;48.016;7.800;2023-07-20T16:26:09;29.60;49.90